Pireps
You are here: Olympic Virtual Pireps

Flight OLY385

  • Submitted By: Stavros Sarikas
  • Departure Airport: Eleftherios Venizelos International Airport (LGAV)
  • Arrival Airport: NIKOLA TESLA (LYBE)
  • Aircraft: A320-200 (SX-OAT)
  • Flight Time: 01.40
  • Date Submitted: 15/08/2017
  • Route: RIMAX UL613 YNN UL604 POD UN732 VAL
  • Status: Rejected
Flight Details
Gross Revenue:
(116 load / € 80.00 per unit
€ 9, 280.00
Fuel Cost:
(3482 fuel used @ 0.19 / unit)
€ 661.58

Additional Log Information:

View Log

Aircraft Used in flight is Airbus A320 British Airways G-EUUU
19:35 Boarding
19:35 Engine 1 Started
19:35 Beacon lights are off and engine is started
19:35 Engine 2 Started
19:35 Navigation Lights ON at 320 Feet
19:35 Beacon Lights ON at 320 Feet
19:35 Brakes are On
19:35 Flaps 3 Selected at 320ft and 0kts
19:45 Brakes are Released
19:45 Pushing back
19:46 Taxi Lights ON at 320 Feet
19:47 Landing Lights ON at 320 AGL
19:47 Strobe Lights ON at 320 Feet
19:48 Brakes are On
19:51 Brakes are Released
19:52 You Took off @ 151 Knots and Flaps at Position 3 With a heading of 37 Degrees
Departure Weather LGAV 151620Z 03014KT 9999 FEW025 28/15 Q1014 NOSIG
Departure Coordinates 37.9399907506568/ 23.9589242004758
Takeoff Weight=63481KG Fuel Weight=8638KG
19:52 Paused
19:52 TOC Reached
19:53 Unpaused
19:53 Landing Gear Up @ 163 Knots and 390 Feet
19:53 Taxi Lights OFF at 390 Feet
19:53 You exceeded maximum bank angle
19:53 Flaps 2 Selected at 1390ft and 164kts
19:53 Flaps 0 Selected at 1600ft and 190kts
19:56 Above FL100 you need to switch of the landing lights
19:56 Landing Lights OFF at 10340 AGL
20:44 Overspeed
20:44 Recovered from Overspeed
21:03 Landing Lights ON at 9920 AGL
21:08 Flaps 1 Selected at 4130ft and 200kts
21:10 Flaps 3 Selected at 2260ft and 190kts
21:10 Landing Gear Down @ 200 Knots and 2210 Feet
21:10 Flaps 4 Selected at 2140ft and 182kts
21:11 Taxi Lights ON at 2120 Feet
21:11 Flaps 5 Selected at 2090ft and 167kts
21:14 You Landed @ 139 Knots with -507 Vertical Speed With a heading of 121 and with 3.1088 G Force
Arrival Weather: LYBE 151730Z 32004KT CAVOK 28/14 Q1019 NOSIG
Arrival Coordinates 44.8258875699014/ 20.2924926304002
Landing Weight=60396KG Fuel Weight=5551KG
21:14 Your Landing was very hard
21:14 Paused
21:14 Taxiing to gate
21:14 Landing Lights OFF at 350 AGL
21:14 Strobe Lights OFF at 350 Feet
21:14 Flaps 0 Selected at 350ft and 30kts
21:15 Unpaused
Pirep logged with OA Virtual Tracking 1.0.2.3

Comments

Commenter Comment
Orestis Aggelakis Your Pirep has been rejected because you Overspeed
Orestis Aggelakis Your Pirep has been rejected because you Beacon lights are off and engine is started

Route Map